»·PEaware :: SWA8101 KSNA-KDEN

SWA8101 :: KSNA-KDEN

FLIGHT INFORMATION

Flight Status: Arrived
Operator:
Southwest Airlines
More flights by this operator :: More flights under this callsign
Pilot: John M. (9732)
Aircraft: BOEING 737-800
(B738)
More flights by this aircraft type
Origin: KSNA John Wayne-Orange Co
United States
Destination: KDEN Denver Intl
United States
More flights between these airports :: More routes between these airports
Route: STAYY3 AVRRY EED J236 TBC SHNPS TBARR1
File this flight plan on PilotEdge
Remarks: RMK / SIMBRIEF
Altitude:
(Current/Filed)
37,000ft
Speed:
(Current/Filed)
453kts
Departed: 29-Nov-20 07:05 PM
Arrived: 29-Nov-20 09:05 PM
Distance/Time
Traveled:
734nm/2:00
Distance/Time
To Go:
Arrived

Flight Plot

Page will automatically refresh every two minutes.

Flight plan parsing failed; only flown route is shown


Map Options




Map Legend


Flown Route
Filed Route
Departure Airport
Arrival Airport
Navaid (VOR, NDB)
Fix

Horizontal Profiles

Position Reports

Time Latitude Longitude Heading Altitude Ground
Speed
29-Nov-20 18:19 33.676065 -117.864374 118 64ft 0kts
29-Nov-20 18:21 33.676065 -117.864374 118 64ft 0kts
29-Nov-20 18:22 33.676065 -117.864374 118 64ft 0kts
29-Nov-20 18:23 33.676065 -117.864374 118 64ft 0kts
29-Nov-20 18:24 33.676065 -117.864374 118 64ft 0kts
29-Nov-20 18:25 33.676065 -117.864374 118 64ft 0kts
29-Nov-20 18:26 33.676065 -117.864374 118 64ft 0kts
29-Nov-20 18:27 33.676065 -117.864374 118 64ft 0kts
29-Nov-20 18:28 33.676065 -117.864374 118 64ft 0kts
29-Nov-20 18:29 33.676065 -117.864374 118 64ft 0kts
29-Nov-20 18:30 33.676065 -117.864374 118 64ft 0kts
29-Nov-20 18:31 33.676065 -117.864374 118 64ft 0kts
29-Nov-20 18:32 33.676065 -117.864374 118 64ft 0kts
29-Nov-20 18:33 33.676065 -117.864374 118 64ft 0kts
29-Nov-20 18:34 33.676065 -117.864374 118 64ft 0kts
29-Nov-20 18:34 33.676065 -117.864374 118 64ft 0kts
29-Nov-20 18:36 33.676065 -117.864374 118 64ft 0kts
29-Nov-20 18:37 33.676065 -117.864374 118 64ft 0kts
29-Nov-20 18:37 33.676065 -117.864374 118 64ft 0kts
29-Nov-20 18:39 33.676065 -117.864374 118 64ft 0kts
29-Nov-20 18:39 33.676065 -117.864374 118 64ft 0kts
29-Nov-20 18:40 33.676065 -117.864374 118 64ft 0kts
29-Nov-20 18:42 33.676065 -117.864374 118 64ft 0kts
29-Nov-20 18:42 33.676065 -117.864374 118 64ft 0kts
29-Nov-20 18:43 33.676065 -117.864374 118 64ft 0kts
29-Nov-20 18:44 33.676065 -117.864374 118 64ft 0kts
29-Nov-20 18:45 33.676065 -117.864374 118 64ft 0kts
29-Nov-20 18:46 33.676065 -117.864374 118 64ft 0kts
29-Nov-20 18:47 33.676065 -117.864374 118 64ft 0kts
29-Nov-20 18:48 33.676065 -117.864374 118 64ft 0kts
29-Nov-20 18:49 33.676065 -117.864374 118 64ft 0kts
29-Nov-20 18:50 33.676065 -117.864374 118 64ft 0kts
29-Nov-20 18:51 33.676065 -117.864374 118 64ft 0kts
29-Nov-20 18:52 33.676149 -117.864557 118 64ft 2kts
29-Nov-20 18:53 33.676325 -117.864941 118 64ft 0kts
29-Nov-20 18:54 33.676325 -117.864941 118 64ft 0kts
29-Nov-20 18:55 33.676325 -117.864941 118 64ft 0kts
29-Nov-20 18:56 33.676325 -117.864941 118 64ft 0kts
29-Nov-20 18:57 33.676323 -117.864935 118 64ft 1kts
29-Nov-20 18:58 33.677421 -117.864435 27 64ft 6kts
29-Nov-20 18:59 33.678844 -117.863501 27 64ft 5kts
29-Nov-20 19:00 33.680097 -117.862750 11 64ft 4kts
29-Nov-20 19:01 33.680609 -117.863084 301 64ft 0kts
29-Nov-20 19:02 33.680610 -117.863086 301 64ft 0kts
29-Nov-20 19:03 33.681305 -117.864643 298 64ft 6kts
29-Nov-20 19:04 33.674194 -117.869774 207 64ft 130kts
29-Nov-20 19:05 33.629011 -117.889960 187 2608ft 193kts
29-Nov-20 19:06 33.573499 -117.900146 169 4978ft 229kts
29-Nov-20 19:07 33.516599 -117.862454 145 6438ft 245kts
29-Nov-20 19:08 33.481150 -117.791748 110 8297ft 260kts
29-Nov-20 19:09 33.481782 -117.703447 73 10132ft 280kts
29-Nov-20 19:10 33.518878 -117.618722 58 13174ft 303kts
29-Nov-20 19:11 33.563147 -117.525913 58 15984ft 333kts
29-Nov-20 19:12 33.582739 -117.414297 90 18585ft 370kts
29-Nov-20 19:13 33.578423 -117.284368 89 20817ft 402kts
29-Nov-20 19:14 33.596045 -117.150590 71 23039ft 416kts
29-Nov-20 19:15 33.624251 -117.015006 77 23188ft 418kts
29-Nov-20 19:16 33.626220 -116.874333 90 23984ft 428kts
29-Nov-20 19:17 33.621792 -116.728059 88 25925ft 448kts
29-Nov-20 19:18 33.618179 -116.577634 88 28019ft 456kts
29-Nov-20 19:19 33.613639 -116.424672 88 30006ft 462kts
29-Nov-20 19:20 33.609424 -116.269077 87 31742ft 470kts
29-Nov-20 19:21 33.605219 -116.111476 87 33331ft 477kts
29-Nov-20 19:22 33.628050 -115.958458 60 35030ft 453kts
29-Nov-20 19:23 33.674722 -115.817616 60 36547ft 454kts
29-Nov-20 19:24 33.719943 -115.673521 61 37225ft 473kts
29-Nov-20 19:25 33.785207 -115.536334 35 37238ft 474kts
29-Nov-20 19:26 33.883894 -115.429627 30 37239ft 479kts
29-Nov-20 19:27 33.983235 -115.323453 31 37242ft 476kts
29-Nov-20 19:28 34.082087 -115.217861 31 37242ft 473kts
29-Nov-20 19:29 34.180575 -115.111898 32 37241ft 473kts
29-Nov-20 19:30 34.278536 -115.006047 32 37241ft 472kts
29-Nov-20 19:31 34.376483 -114.899850 32 37250ft 472kts
29-Nov-20 19:32 34.473735 -114.794056 32 37245ft 470kts
29-Nov-20 19:33 34.570999 -114.688240 32 37240ft 470kts
29-Nov-20 19:34 34.668300 -114.581526 33 37234ft 470kts
29-Nov-20 19:35 34.762253 -114.470328 43 37236ft 482kts
29-Nov-20 19:36 34.831330 -114.327062 54 37233ft 493kts
29-Nov-20 19:37 34.895394 -114.179856 54 37245ft 492kts
29-Nov-20 19:38 34.960081 -114.032747 54 37264ft 490kts
29-Nov-20 19:39 35.024159 -113.886640 55 37289ft 487kts
29-Nov-20 19:40 35.087619 -113.740799 55 37305ft 486kts
29-Nov-20 19:41 35.151009 -113.594411 55 37308ft 486kts
29-Nov-20 19:42 35.213879 -113.448584 56 37310ft 484kts
29-Nov-20 19:43 35.276616 -113.302427 56 37325ft 484kts
29-Nov-20 19:44 35.338920 -113.156652 56 37348ft 483kts
29-Nov-20 19:45 35.401174 -113.010351 56 37372ft 483kts
29-Nov-20 19:46 35.462990 -112.864442 56 37390ft 482kts
29-Nov-20 19:47 35.524568 -112.718458 56 37398ft 482kts
29-Nov-20 19:48 35.586120 -112.571909 57 37402ft 481kts
29-Nov-20 19:49 35.647101 -112.425975 57 37406ft 480kts
29-Nov-20 19:50 35.707929 -112.279878 58 37408ft 478kts
29-Nov-20 19:51 35.768295 -112.134234 58 37411ft 478kts
29-Nov-20 19:52 35.828543 -111.988262 58 37411ft 477kts
29-Nov-20 19:53 35.888389 -111.842548 58 37410ft 477kts
29-Nov-20 19:54 35.948044 -111.696691 58 37411ft 477kts
29-Nov-20 19:55 36.008022 -111.550188 58 37416ft 478kts
29-Nov-20 19:56 36.067136 -111.403848 58 37416ft 476kts
29-Nov-20 19:57 36.126685 -111.257525 55 37419ft 473kts
29-Nov-20 19:58 36.195956 -111.120216 52 37423ft 470kts
29-Nov-20 19:59 36.265381 -110.982492 53 37424ft 470kts
29-Nov-20 20:00 36.334541 -110.845127 53 37426ft 470kts
29-Nov-20 20:01 36.403594 -110.707512 53 37430ft 470kts
29-Nov-20 20:02 36.472525 -110.569034 53 37441ft 470kts
29-Nov-20 20:03 36.540973 -110.430856 53 37451ft 469kts
29-Nov-20 20:04 36.609400 -110.292135 53 37462ft 469kts
29-Nov-20 20:05 36.677444 -110.153618 53 37469ft 469kts
29-Nov-20 20:06 36.745310 -110.014889 53 37476ft 469kts
29-Nov-20 20:07 36.813132 -109.875672 53 37484ft 468kts
29-Nov-20 20:08 36.880511 -109.736796 54 37493ft 467kts
29-Nov-20 20:09 36.947811 -109.597501 54 37500ft 467kts
29-Nov-20 20:10 37.014712 -109.458443 54 37500ft 467kts
29-Nov-20 20:11 37.081609 -109.318818 54 37498ft 466kts
29-Nov-20 20:12 37.148058 -109.179540 54 37496ft 466kts
29-Nov-20 20:13 37.214373 -109.039952 54 37491ft 466kts
29-Nov-20 20:14 37.280610 -108.899944 54 37485ft 465kts
29-Nov-20 20:15 37.346407 -108.760271 54 37481ft 464kts
29-Nov-20 20:16 37.412157 -108.620100 54 37481ft 464kts
29-Nov-20 20:18 37.477426 -108.480357 54 36142ft 458kts
29-Nov-20 20:19 37.541846 -108.341852 55 35471ft 456kts
29-Nov-20 20:20 37.605560 -108.204282 55 34971ft 453kts
29-Nov-20 20:21 37.668806 -108.067145 55 34472ft 451kts
29-Nov-20 20:22 37.731866 -107.929832 55 33971ft 450kts
29-Nov-20 20:23 37.794439 -107.793003 55 33472ft 450kts
29-Nov-20 20:24 37.857128 -107.655328 55 32972ft 450kts
29-Nov-20 20:25 37.919546 -107.517676 56 32473ft 452kts
29-Nov-20 20:26 37.982088 -107.379155 56 31971ft 452kts
29-Nov-20 20:27 38.044375 -107.241350 56 31472ft 448kts
29-Nov-20 20:28 38.105775 -107.103641 56 30973ft 449kts
29-Nov-20 20:29 38.173234 -106.970910 46 30472ft 444kts
29-Nov-20 20:30 38.252325 -106.850715 45 29973ft 443kts
29-Nov-20 20:31 38.331546 -106.729632 46 29472ft 444kts
29-Nov-20 20:32 38.410998 -106.608605 45 28973ft 447kts
29-Nov-20 20:33 38.490724 -106.486941 45 28473ft 448kts
29-Nov-20 20:34 38.570467 -106.363677 46 27972ft 450kts
29-Nov-20 20:35 38.650093 -106.240187 46 27583ft 450kts
29-Nov-20 20:36 38.729425 -106.119454 45 26747ft 423kts
29-Nov-20 20:36 38.791210 -106.024521 45 25824ft 414kts
29-Nov-20 20:38 38.875759 -105.894153 45 24075ft 403kts
29-Nov-20 20:38 38.934774 -105.802622 45 23004ft 393kts
29-Nov-20 20:39 39.003743 -105.696078 45 21992ft 385kts
29-Nov-20 20:41 39.082475 -105.572864 46 20822ft 379kts
29-Nov-20 20:41 39.137932 -105.485885 46 20528ft 376kts
29-Nov-20 20:43 39.211890 -105.368869 46 19628ft 343kts
29-Nov-20 20:43 39.260658 -105.291053 46 18613ft 326kts
29-Nov-20 20:44 39.324211 -105.215456 31 17610ft 303kts
29-Nov-20 20:45 39.393205 -105.151873 32 16607ft 302kts
29-Nov-20 20:46 39.460746 -105.088871 33 15607ft 297kts
29-Nov-20 20:47 39.527676 -105.027758 33 14604ft 289kts
29-Nov-20 20:48 39.591421 -104.969089 33 13948ft 274kts
29-Nov-20 20:49 39.653834 -104.911423 34 13450ft 276kts
29-Nov-20 20:50 39.716210 -104.853944 30 13001ft 272kts
29-Nov-20 20:51 39.787611 -104.840233 0 12303ft 257kts
29-Nov-20 20:52 39.857226 -104.839803 1 11399ft 245kts
29-Nov-20 20:53 39.923682 -104.839206 0 10993ft 233kts
29-Nov-20 20:54 39.989376 -104.839690 0 10999ft 238kts
29-Nov-20 20:55 40.056469 -104.839720 0 10262ft 236kts
29-Nov-20 20:56 40.120879 -104.838819 0 9310ft 229kts
29-Nov-20 20:57 40.159277 -104.792416 105 8308ft 220kts
29-Nov-20 20:58 40.133414 -104.724476 118 7999ft 198kts
29-Nov-20 20:59 40.090251 -104.689485 174 8027ft 199kts
29-Nov-20 21:00 40.036696 -104.685173 181 8007ft 185kts
29-Nov-20 21:01 39.986777 -104.685675 179 7173ft 172kts
29-Nov-20 21:02 39.943124 -104.686084 180 6347ft 149kts
29-Nov-20 21:03 39.902279 -104.686776 180 5554ft 144kts
29-Nov-20 21:04 39.877633 -104.686509 157 5439ft 14kts
29-Nov-20 21:05 39.876920 -104.686072 151 5439ft 0kts
29-Nov-20 21:06 39.876775 -104.685970 151 5439ft 0kts
29-Nov-20 21:07 39.875684 -104.685189 154 5439ft 7kts
29-Nov-20 21:08 39.873165 -104.684950 181 5439ft 9kts
29-Nov-20 21:09 39.869985 -104.685008 180 5439ft 12kts
29-Nov-20 21:10 39.866089 -104.685042 181 5439ft 14kts
29-Nov-20 21:11 39.861848 -104.685049 161 5439ft 11kts
29-Nov-20 21:12 39.861438 -104.681161 89 5439ft 13kts
29-Nov-20 21:13 39.861396 -104.677464 87 5439ft 7kts
29-Nov-20 21:14 39.862390 -104.676442 25 5439ft 4kts
29-Nov-20 21:15 39.862599 -104.676313 25 5439ft 0kts
29-Nov-20 21:16 39.862621 -104.676298 25 5439ft 0kts
29-Nov-20 21:17 39.862621 -104.676298 25 5439ft 0kts
29-Nov-20 21:18 39.862621 -104.676298 25 5439ft 0kts

Navigation Log

Ident Type
Flight plan parsing failed, navigation log unavailable